Time;durP1;ratioP1;P1;durP2;ratioP2;P2;SDS_P1;SDS_P2;PMS_P1;PMS_P2;Temp;Humidity;BMP_temperature;BMP_pressure;BME280_temperature;BME280_humidity;BME280_pressure;Samples;Min_cycle;Max_cycle;Signal;HPM_P1;HPM_P2
2023/05/04 00:01:30;;;;;;;4.00;2.93;;;;;;;7.25;100.00;102689.56;6062960;23;20291;-64
2023/05/04 00:03:56;;;;;;;5.80;3.07;;;;;;;7.27;100.00;102686.78;6064813;23;20164;-64
2023/05/04 00:06:21;;;;;;;3.80;2.50;;;;;;;7.11;100.00;102677.38;6062122;23;20175;-64
2023/05/04 00:08:47;;;;;;;3.37;2.60;;;;;;;7.11;100.00;102650.72;6064273;23;20136;-64
2023/05/04 00:11:12;;;;;;;3.43;2.70;;;;;;;6.75;100.00;102644.03;6064125;23;20473;-64
2023/05/04 00:13:37;;;;;;;4.33;2.77;;;;;;;6.92;100.00;102666.63;6063216;23;20159;-64
2023/05/04 00:16:03;;;;;;;3.80;3.10;;;;;;;7.12;100.00;102675.59;6062865;23;20175;-64
2023/05/04 00:18:28;;;;;;;3.23;2.57;;;;;;;7.29;100.00;102639.41;6063708;23;20230;-64
2023/05/04 00:20:54;;;;;;;4.57;3.17;;;;;;;6.96;100.00;102684.03;6064200;23;20155;-64
2023/05/04 00:23:19;;;;;;;3.83;3.23;;;;;;;7.03;100.00;102674.56;6064403;23;20670;-64
2023/05/04 00:25:45;;;;;;;4.90;3.20;;;;;;;7.15;100.00;102638.81;6064902;23;20263;-64
2023/05/04 00:28:10;;;;;;;4.97;2.87;;;;;;;7.08;100.00;102671.47;6064049;23;20262;-64
2023/05/04 00:30:36;;;;;;;5.57;3.03;;;;;;;7.25;100.00;102668.22;6063422;23;20627;-64
2023/05/04 00:33:01;;;;;;;4.43;3.10;;;;;;;7.01;100.00;102642.66;6062760;23;20189;-65
2023/05/04 00:35:27;;;;;;;4.10;3.23;;;;;;;7.23;100.00;102663.03;6062443;23;20171;-65
2023/05/04 00:37:52;;;;;;;4.80;3.50;;;;;;;7.10;100.00;102650.84;6063279;23;20151;-65
2023/05/04 00:40:18;;;;;;;4.60;2.90;;;;;;;7.02;100.00;102638.16;6061946;23;20186;-65
2023/05/04 00:42:43;;;;;;;5.10;3.30;;;;;;;6.91;100.00;102636.41;6062531;23;20602;-64
2023/05/04 00:45:09;;;;;;;4.23;3.00;;;;;;;6.59;100.00;102670.28;6063120;23;20175;-65
2023/05/04 00:47:35;;;;;;;5.47;2.87;;;;;;;6.33;100.00;102660.81;6064522;23;20155;-65
2023/05/04 00:50:00;;;;;;;6.70;4.13;;;;;;;6.28;100.00;102657.69;6064097;23;20151;-65
2023/05/04 00:52:26;;;;;;;4.83;3.23;;;;;;;6.51;100.00;102612.28;6064751;23;20786;-65
2023/05/04 00:54:53;;;;;;;6.93;3.00;;;;;;;6.53;100.00;102635.16;6065015;23;20183;-65
2023/05/04 00:57:18;;;;;;;4.27;3.70;;;;;;;6.54;100.00;102647.53;6064690;23;20839;-65
2023/05/04 00:59:44;;;;;;;8.00;3.90;;;;;;;6.53;100.00;102636.97;6063790;23;20475;-64
2023/05/04 01:02:09;;;;;;;6.40;4.07;;;;;;;6.82;100.00;102631.84;6063601;23;20247;-65
2023/05/04 01:04:35;;;;;;;4.00;3.00;;;;;;;6.72;100.00;102639.81;6064106;23;20505;-64
2023/05/04 01:07:12;;;;;;;6.50;3.50;;;;;;;6.70;100.00;102633.75;6064723;23;20183;-64
2023/05/04 01:09:57;;;;;;;6.40;4.07;;;;;;;6.79;100.00;102635.63;6064341;23;20197;-64
2023/05/04 01:12:33;;;;;;;7.03;3.70;;;;;;;7.00;100.00;102630.31;6064772;23;20692;-64
2023/05/04 01:14:59;;;;;;;4.97;3.90;;;;;;;7.19;100.00;102628.72;6064615;23;20829;-64
2023/05/04 01:17:25;;;;;;;6.83;3.70;;;;;;;6.84;100.00;102605.06;6064427;23;20411;-64
2023/05/04 01:19:52;;;;;;;4.00;3.30;;;;;;;6.91;100.00;102612.38;6064592;23;20914;-65
2023/05/04 01:22:19;;;;;;;5.10;3.10;;;;;;;6.83;100.00;102622.91;6063367;23;20375;-65
2023/05/04 01:24:44;;;;;;;6.60;3.50;;;;;;;6.40;100.00;102562.53;6064743;23;20375;-65
2023/05/04 01:27:18;;;;;;;6.50;3.60;;;;;;;6.75;100.00;102620.88;6063671;23;20439;-65
2023/05/04 01:29:52;;;;;;;5.20;3.80;;;;;;;6.51;100.00;102622.94;6064156;23;20139;-65
2023/05/04 01:32:20;;;;;;;5.70;3.57;;;;;;;6.71;100.00;102622.13;6062844;23;20822;-65
2023/05/04 01:34:46;;;;;;;6.60;4.17;;;;;;;6.62;100.00;102622.88;6064283;23;20375;-65
2023/05/04 01:37:12;;;;;;;6.20;3.60;;;;;;;6.71;100.00;102621.25;6064430;23;20379;-66
2023/05/04 01:39:37;;;;;;;5.93;3.23;;;;;;;6.50;100.00;102621.25;6065017;23;20906;-66
2023/05/04 01:42:03;;;;;;;6.33;3.73;;;;;;;6.68;100.00;102624.19;6063765;23;20175;-66
2023/05/04 01:44:29;;;;;;;5.80;3.67;;;;;;;6.29;100.00;102597.22;6064504;23;20166;-66
2023/05/04 01:46:55;;;;;;;10.37;4.50;;;;;;;6.36;100.00;102590.41;6061834;23;20492;-66
2023/05/04 01:49:21;;;;;;;6.20;3.80;;;;;;;6.56;100.00;102576.25;6063255;23;20411;-66
2023/05/04 01:51:48;;;;;;;5.53;3.93;;;;;;;6.79;100.00;102622.28;6064330;23;20182;-66
2023/05/04 01:54:14;;;;;;;5.60;3.97;;;;;;;6.31;100.00;102619.28;6063542;23;20248;-66
2023/05/04 01:56:40;;;;;;;6.40;3.60;;;;;;;6.52;100.00;102608.63;6064515;23;20403;-66
2023/05/04 01:59:06;;;;;;;8.03;4.20;;;;;;;6.20;100.00;102609.50;6061896;23;20438;-66
2023/05/04 02:01:31;;;;;;;4.47;3.40;;;;;;;6.24;100.00;102575.44;6062766;23;20747;-65
2023/05/04 02:03:57;;;;;;;6.70;4.00;;;;;;;6.21;100.00;102605.00;6063254;23;20945;-66
2023/05/04 02:06:22;;;;;;;7.73;4.10;;;;;;;6.13;100.00;102599.47;6061820;23;20635;-66
2023/05/04 02:08:47;;;;;;;4.20;3.50;;;;;;;6.37;100.00;102573.44;6064622;23;20143;-66
2023/05/04 02:11:16;;;;;;;6.13;4.20;;;;;;;6.05;100.00;102558.34;6063162;23;20476;-66
2023/05/04 02:13:41;;;;;;;4.77;3.87;;;;;;;6.10;100.00;102557.94;6064899;23;20158;-66
2023/05/04 02:16:07;;;;;;;4.60;3.50;;;;;;;6.29;100.00;102566.09;6063415;23;20415;-66
2023/05/04 02:18:32;;;;;;;4.93;3.70;;;;;;;6.65;100.00;102569.28;6063968;23;20190;-66
2023/05/04 02:20:58;;;;;;;7.73;3.97;;;;;;;6.04;100.00;102521.16;6064386;23;20155;-66
2023/05/04 02:23:24;;;;;;;6.20;3.63;;;;;;;6.39;100.00;102565.31;6063973;23;20155;-67
2023/05/04 02:25:49;;;;;;;4.90;3.53;;;;;;;6.41;100.00;102577.53;6063952;23;20182;-63
2023/05/04 02:28:15;;;;;;;8.40;4.43;;;;;;;6.65;100.00;102568.44;6064278;23;20493;-63
2023/05/04 02:30:41;;;;;;;6.10;4.03;;;;;;;6.30;100.00;102506.47;6063511;23;20165;-63
2023/05/04 02:33:06;;;;;;;4.13;3.73;;;;;;;6.28;100.00;102548.41;6064269;23;20365;-63
2023/05/04 02:35:31;;;;;;;6.90;4.03;;;;;;;6.61;100.00;102561.69;6061731;23;20401;-63
2023/05/04 02:37:57;;;;;;;5.37;4.20;;;;;;;6.65;100.00;102569.28;6064027;23;20289;-63
2023/05/04 02:40:23;;;;;;;4.57;4.17;;;;;;;6.49;100.00;102572.41;6062816;23;20557;-64
2023/05/04 02:42:48;;;;;;;6.27;4.00;;;;;;;6.21;100.00;102539.22;6063302;23;20159;-63
2023/05/04 02:45:14;;;;;;;5.20;3.93;;;;;;;6.33;100.00;102548.00;6061623;23;20238;-64
2023/05/04 02:47:39;;;;;;;7.57;4.37;;;;;;;6.33;100.00;102550.69;6058771;23;20151;-64
2023/05/04 02:50:05;;;;;;;7.27;3.90;;;;;;;6.45;100.00;102552.34;6062297;23;20151;-64
2023/05/04 02:52:30;;;;;;;6.10;4.50;;;;;;;6.31;100.00;102556.16;6058518;23;20161;-64
2023/05/04 02:54:56;;;;;;;8.17;4.90;;;;;;;6.52;100.00;102548.16;6061508;23;20482;-63
2023/05/04 02:57:21;;;;;;;8.13;4.83;;;;;;;6.47;100.00;102546.84;6059121;23;20191;-64
2023/05/04 02:59:47;;;;;;;7.50;4.20;;;;;;;6.60;100.00;102544.84;6061084;23;20175;-64
2023/05/04 03:02:12;;;;;;;6.27;4.23;;;;;;;6.72;100.00;102543.78;6062147;23;20159;-63
2023/05/04 03:04:37;;;;;;;6.47;4.40;;;;;;;6.67;100.00;102551.34;6060977;23;20211;-63
2023/05/04 03:07:03;;;;;;;6.07;4.47;;;;;;;6.76;100.00;102552.38;6061622;23;20178;-64
2023/05/04 03:09:28;;;;;;;7.80;4.97;;;;;;;6.36;100.00;102549.59;6059815;23;20488;-64
2023/05/04 03:11:54;;;;;;;6.80;4.27;;;;;;;6.57;100.00;102545.94;6062057;23;20600;-64
2023/05/04 03:14:19;;;;;;;8.27;4.40;;;;;;;6.63;100.00;102517.94;6062789;23;20152;-64
2023/05/04 03:16:45;;;;;;;7.77;5.10;;;;;;;6.78;100.00;102532.59;6060797;23;20556;-64
2023/05/04 03:19:10;;;;;;;6.90;4.77;;;;;;;6.16;100.00;102495.28;6061827;23;20720;-64
2023/05/04 03:21:35;;;;;;;9.33;4.90;;;;;;;6.07;100.00;102535.06;6063557;23;20151;-65
2023/05/04 03:24:01;;;;;;;6.40;4.60;;;;;;;6.30;100.00;102508.31;6063155;23;20182;-64
2023/05/04 03:26:26;;;;;;;7.37;4.40;;;;;;;6.40;100.00;102537.69;6062344;23;20238;-64
2023/05/04 03:28:52;;;;;;;6.43;4.60;;;;;;;6.21;100.00;102517.91;6064829;23;20155;-64
2023/05/04 03:31:17;;;;;;;5.73;4.20;;;;;;;5.93;100.00;102498.09;6062587;23;20210;-64
2023/05/04 03:33:43;;;;;;;9.83;4.57;;;;;;;6.07;100.00;102513.75;6064947;23;20162;-64
2023/05/04 03:36:08;;;;;;;8.17;5.00;;;;;;;6.14;100.00;102500.78;6063344;23;20261;-64
2023/05/04 03:38:34;;;;;;;6.00;4.50;;;;;;;6.03;100.00;102483.00;6065078;23;20186;-64
2023/05/04 03:40:59;;;;;;;5.50;4.67;;;;;;;6.32;100.00;102501.03;6064939;23;20213;-64
2023/05/04 03:43:25;;;;;;;7.20;5.07;;;;;;;6.15;100.00;102507.78;6064868;23;20151;-64
2023/05/04 03:45:50;;;;;;;6.70;4.80;;;;;;;6.15;100.00;102432.34;6063157;23;20185;-66
2023/05/04 03:48:15;;;;;;;6.97;4.80;;;;;;;6.62;100.00;102507.38;6062896;23;20167;-65
2023/05/04 03:50:41;;;;;;;5.50;4.90;;;;;;;6.54;100.00;102508.91;6064764;23;20177;-65
2023/05/04 03:53:06;;;;;;;6.70;5.33;;;;;;;6.73;100.00;102501.97;6064861;23;20516;-65
2023/05/04 03:55:32;;;;;;;6.37;4.50;;;;;;;6.59;100.00;102470.31;6063705;23;20179;-65
2023/05/04 03:57:57;;;;;;;5.63;4.27;;;;;;;6.68;100.00;102496.19;6065323;23;20647;-65
2023/05/04 04:00:22;;;;;;;6.77;4.70;;;;;;;6.78;100.00;102497.09;6064386;23;20622;-64
2023/05/04 04:02:48;;;;;;;6.20;4.73;;;;;;;6.43;100.00;102447.66;6065333;23;20186;-65
2023/05/04 04:05:13;;;;;;;7.73;4.80;;;;;;;6.57;100.00;102495.28;6064590;23;20652;-65
2023/05/04 04:07:39;;;;;;;6.23;4.17;;;;;;;6.17;100.00;102486.34;6065424;23;20524;-65
2023/05/04 04:10:05;;;;;;;8.37;5.33;;;;;;;6.53;100.00;102501.00;6065431;23;20161;-65
2023/05/04 04:12:31;;;;;;;6.03;4.53;;;;;;;6.73;100.00;102501.97;6064978;23;20379;-65
2023/05/04 04:14:56;;;;;;;6.33;5.13;;;;;;;6.64;100.00;102492.09;6065796;23;20458;-65
2023/05/04 04:17:21;;;;;;;7.40;4.60;;;;;;;6.15;100.00;102441.16;6065355;23;20154;-65
2023/05/04 04:19:47;;;;;;;6.17;4.60;;;;;;;6.52;100.00;102480.66;6064443;23;20183;-65
2023/05/04 04:22:12;;;;;;;8.30;4.67;;;;;;;6.82;100.00;102503.00;6065987;23;20187;-65
2023/05/04 04:24:38;;;;;;;6.93;4.83;;;;;;;6.73;100.00;102502.81;6065412;23;20151;-65
2023/05/04 04:27:04;;;;;;;5.07;4.27;;;;;;;6.69;100.00;102496.06;6065281;23;20162;-65
2023/05/04 04:29:29;;;;;;;8.03;4.70;;;;;;;6.37;100.00;102469.50;6065781;23;20151;-65
2023/05/04 04:31:55;;;;;;;6.43;4.97;;;;;;;6.64;100.00;102498.28;6063881;23;20386;-65
2023/05/04 04:34:21;;;;;;;6.47;4.50;;;;;;;6.70;100.00;102491.56;6065115;23;20630;-65
2023/05/04 04:36:46;;;;;;;7.47;5.20;;;;;;;6.66;100.00;102501.66;6063626;23;20197;-65
2023/05/04 04:39:12;;;;;;;5.87;4.70;;;;;;;6.69;100.00;102493.41;6064977;23;20227;-65
2023/05/04 04:41:37;;;;;;;7.67;5.37;;;;;;;6.78;100.00;102495.25;6062875;23;20163;-65
2023/05/04 04:44:03;;;;;;;7.30;5.03;;;;;;;6.63;100.00;102495.75;6064016;23;20157;-64
2023/05/04 04:46:29;;;;;;;9.80;5.60;;;;;;;6.90;100.00;102490.66;6064051;23;20636;-64
2023/05/04 04:48:55;;;;;;;6.67;5.23;;;;;;;7.09;100.00;102494.38;6058717;23;20486;-66
2023/05/04 04:51:21;;;;;;;8.30;4.83;;;;;;;6.42;100.00;102419.31;6065096;23;20230;-65
2023/05/04 04:53:46;;;;;;;7.23;4.40;;;;;;;6.77;100.00;102479.41;6063472;23;20407;-66
2023/05/04 04:56:12;;;;;;;6.80;4.90;;;;;;;6.70;100.00;102475.56;6064863;23;20655;-66
2023/05/04 04:58:37;;;;;;;9.50;4.40;;;;;;;7.08;100.00;102498.03;6065184;23;20179;-66
2023/05/04 05:01:03;;;;;;;5.47;4.30;;;;;;;6.88;100.00;102449.94;6064907;23;20154;-65
2023/05/04 05:03:30;;;;;;;5.43;4.33;;;;;;;7.00;100.00;102464.00;6060400;23;20550;-66
2023/05/04 05:05:55;;;;;;;5.93;3.40;;;;;;;6.97;100.00;102490.97;6063622;23;20399;-66
2023/05/04 05:08:21;;;;;;;6.40;4.20;;;;;;;6.83;100.00;102456.66;6064474;23;20438;-65
2023/05/04 05:10:46;;;;;;;6.70;4.07;;;;;;;6.93;100.00;102493.06;6063608;23;20196;-66
2023/05/04 05:13:11;;;;;;;5.83;4.23;;;;;;;6.95;100.00;102492.94;6061764;23;20159;-65
2023/05/04 05:15:37;;;;;;;5.93;3.87;;;;;;;7.15;100.00;102480.53;6064440;23;20653;-66
2023/05/04 05:18:03;;;;;;;5.63;4.00;;;;;;;7.07;100.00;102486.53;6064651;23;20161;-66
2023/05/04 05:20:28;;;;;;;7.90;4.30;;;;;;;6.67;100.00;102418.00;6064765;23;20187;-66
2023/05/04 05:22:54;;;;;;;9.23;4.13;;;;;;;7.08;100.00;102484.69;6065079;23;20599;-66
2023/05/04 05:25:19;;;;;;;5.13;4.27;;;;;;;7.16;100.00;102500.88;6063343;23;20199;-66
2023/05/04 05:27:45;;;;;;;9.70;4.30;;;;;;;6.88;100.00;102431.28;6062792;23;20254;-66
2023/05/04 05:30:10;;;;;;;7.07;3.70;;;;;;;7.16;100.00;102476.84;6063360;23;20246;-66
2023/05/04 05:32:37;;;;;;;7.60;4.37;;;;;;;7.21;100.00;102440.78;6062940;23;20203;-66
2023/05/04 05:35:04;;;;;;;5.67;4.43;;;;;;;7.52;100.00;102499.44;6062293;23;20459;-65
2023/05/04 05:37:31;;;;;;;7.10;3.97;;;;;;;7.52;100.00;102501.22;6062812;23;20514;-65
2023/05/04 05:39:56;;;;;;;7.63;4.07;;;;;;;7.73;100.00;102499.31;6060711;23;20942;-66
2023/05/04 05:42:21;;;;;;;8.67;4.63;;;;;;;7.44;100.00;102438.72;6059922;23;20863;-66
2023/05/04 05:44:47;;;;;;;7.70;4.40;;;;;;;7.52;100.00;102450.50;6058475;23;20162;-66
2023/05/04 05:47:13;;;;;;;7.13;4.80;;;;;;;7.78;100.00;102496.19;6060877;23;20183;-65
2023/05/04 05:49:38;;;;;;;8.77;5.03;;;;;;;7.19;100.00;102396.53;6061973;23;20666;-65
2023/05/04 05:52:04;;;;;;;8.23;5.13;;;;;;;7.80;100.00;102489.75;6062871;23;20380;-65
2023/05/04 05:54:30;;;;;;;6.97;4.70;;;;;;;7.80;100.00;102452.34;6063654;23;20179;-65
2023/05/04 05:56:56;;;;;;;8.53;5.97;;;;;;;8.10;100.00;102488.75;6062534;23;20207;-65
2023/05/04 05:59:21;;;;;;;5.30;4.77;;;;;;;7.86;100.00;102466.97;6060088;23;20422;-65
2023/05/04 06:01:47;;;;;;;14.00;5.43;;;;;;;8.13;100.00;102484.97;6060171;23;20162;-65
2023/05/04 06:04:12;;;;;;;9.23;4.80;;;;;;;8.19;100.00;102494.22;6059807;23;20163;-65
2023/05/04 06:06:38;;;;;;;7.33;4.50;;;;;;;7.89;100.00;102462.19;6059481;23;20194;-66
2023/05/04 06:09:04;;;;;;;7.67;4.37;;;;;;;8.33;100.00;102496.44;6062173;23;20136;-65
2023/05/04 06:11:30;;;;;;;10.73;5.10;;;;;;;8.28;100.00;102498.72;6063715;23;20162;-66
2023/05/04 06:13:56;;;;;;;7.00;4.23;;;;;;;8.29;100.00;102493.22;6061660;23;20406;-65
2023/05/04 06:16:21;;;;;;;5.17;4.03;;;;;;;8.12;100.00;102486.78;6063003;23;20406;-65
2023/05/04 06:18:46;;;;;;;5.93;3.87;;;;;;;8.31;100.00;102493.09;6059360;23;20190;-65
2023/05/04 06:21:12;;;;;;;8.20;4.50;;;;;;;8.34;100.00;102479.44;6062797;23;20175;-65
2023/05/04 06:23:38;;;;;;;6.67;4.43;;;;;;;8.19;100.00;102468.34;6061637;23;20234;-65
2023/05/04 06:26:07;;;;;;;8.33;4.80;;;;;;;8.05;100.00;102458.94;6060904;23;20186;-65
2023/05/04 06:28:33;;;;;;;8.13;4.67;;;;;;;8.15;100.00;102450.91;6061771;23;20155;-65
2023/05/04 06:30:59;;;;;;;9.47;4.60;;;;;;;8.32;100.00;102463.53;6062203;23;20380;-65
2023/05/04 06:33:25;;;;;;;7.67;4.10;;;;;;;8.43;100.00;102467.91;6062088;23;20390;-65
2023/05/04 06:35:52;;;;;;;6.70;4.40;;;;;;;8.53;100.00;102467.88;6060850;23;20193;-65
2023/05/04 06:38:17;;;;;;;10.73;5.13;;;;;;;8.55;100.00;102469.41;6062777;23;20411;-65
2023/05/04 06:40:42;;;;;;;10.77;4.60;;;;;;;8.51;100.00;102441.28;6062961;23;20371;-65
2023/05/04 06:43:08;;;;;;;12.53;4.40;;;;;;;8.44;100.00;102418.78;6062826;23;20155;-65
2023/05/04 06:45:34;;;;;;;9.10;4.50;;;;;;;8.80;100.00;102464.41;6063337;23;20175;-65
2023/05/04 06:48:00;;;;;;;8.77;4.77;;;;;;;8.67;100.00;102419.25;6063207;23;20194;-63
2023/05/04 06:50:26;;;;;;;9.57;5.10;;;;;;;8.85;100.00;102450.56;6062480;23;20380;-64
2023/05/04 06:53:02;;;;;;;5.87;3.90;;;;;;;8.94;100.00;102449.66;6061815;23;20159;-64
2023/05/04 06:55:27;;;;;;;5.93;4.47;;;;;;;8.32;100.00;102353.91;6061159;23;20429;-64
2023/05/04 06:57:52;;;;;;;7.60;5.00;;;;;;;8.98;100.00;102432.34;6061565;23;20379;-66
2023/05/04 07:00:18;;;;;;;9.40;3.87;;;;;;;9.11;100.00;102437.34;6060516;23;20714;-64
2023/05/04 07:02:45;;;;;;;6.53;4.43;;;;;;;9.25;100.00;102434.97;6063174;23;20482;-64
2023/05/04 07:05:11;;;;;;;7.10;4.90;;;;;;;9.04;100.00;102427.22;6063294;23;20177;-65
2023/05/04 07:07:37;;;;;;;6.10;4.93;;;;;;;9.13;100.00;102409.41;6063648;23;20388;-65
2023/05/04 07:10:02;;;;;;;6.80;3.93;;;;;;;8.88;100.00;102391.41;6061750;23;20162;-64
2023/05/04 07:12:28;;;;;;;8.43;4.30;;;;;;;9.27;100.00;102429.50;6064242;23;20155;-64
2023/05/04 07:14:53;;;;;;;6.97;4.20;;;;;;;9.07;100.00;102372.56;6064121;23;20243;-64
2023/05/04 07:17:20;;;;;;;6.70;3.93;;;;;;;9.43;100.00;102424.31;6065511;23;20622;-64
2023/05/04 07:19:48;;;;;;;8.60;4.63;;;;;;;9.47;100.00;102416.81;6063960;23;20254;-64
2023/05/04 07:22:14;;;;;;;5.83;4.07;;;;;;;9.59;100.00;102412.88;6063439;23;20850;-64
2023/05/04 07:24:39;;;;;;;7.90;4.03;;;;;;;9.57;100.00;102401.47;6062516;23;20391;-63
2023/05/04 07:27:05;;;;;;;8.07;4.40;;;;;;;9.46;100.00;102389.19;6064954;23;20236;-63
2023/05/04 07:29:31;;;;;;;7.67;3.93;;;;;;;9.69;100.00;102400.25;6063603;23;20541;-63
2023/05/04 07:31:56;;;;;;;6.97;4.30;;;;;;;9.69;100.00;102418.16;6061915;23;20166;-63
2023/05/04 07:34:22;;;;;;;6.63;4.50;;;;;;;9.52;100.00;102368.97;6063429;23;20184;-64
2023/05/04 07:36:47;;;;;;;6.87;3.77;;;;;;;9.67;100.00;102383.50;6064660;23;20179;-63
2023/05/04 07:39:15;;;;;;;5.87;3.73;;;;;;;9.58;100.00;102363.00;6063432;23;20175;-64
2023/05/04 07:41:40;;;;;;;9.70;4.50;;;;;;;9.91;100.00;102403.44;6064714;23;20155;-66
2023/05/04 07:44:07;;;;;;;13.27;5.43;;;;;;;9.92;100.00;102391.72;6061614;23;20936;-63
2023/05/04 07:46:33;;;;;;;7.17;4.30;;;;;;;9.91;100.00;102376.63;6063217;23;20195;-63
2023/05/04 07:48:58;;;;;;;7.50;4.20;;;;;;;9.98;100.00;102360.75;6060763;23;20372;-63
2023/05/04 07:51:24;;;;;;;5.80;3.87;;;;;;;10.30;100.00;102389.63;6064234;23;20171;-63
2023/05/04 07:53:49;;;;;;;9.17;4.63;;;;;;;10.23;100.00;102369.81;6064445;23;20159;-63
2023/05/04 07:56:15;;;;;;;4.93;3.73;;;;;;;10.38;100.00;102368.22;6064507;23;20171;-64
2023/05/04 07:58:40;;;;;;;6.80;3.73;;;;;;;10.59;100.00;102376.72;6065117;23;20621;-64
2023/05/04 08:01:06;;;;;;;9.00;5.10;;;;;;;10.47;100.00;102361.06;6064044;23;20156;-64
2023/05/04 08:03:31;;;;;;;4.73;3.87;;;;;;;10.53;100.00;102376.50;6063729;23;20912;-64
2023/05/04 08:05:57;;;;;;;9.40;4.57;;;;;;;10.58;100.00;102380.38;6062585;23;20207;-64
2023/05/04 08:08:22;;;;;;;7.23;4.17;;;;;;;10.62;100.00;102368.34;6059916;23;20166;-64
2023/05/04 08:10:48;;;;;;;8.10;3.63;;;;;;;10.83;100.00;102383.19;6063640;23;20239;-63
2023/05/04 08:13:13;;;;;;;7.20;4.20;;;;;;;10.91;100.00;102377.84;6063704;23;20231;-63
2023/05/04 08:15:39;;;;;;;7.70;4.10;;;;;;;10.87;100.00;102381.84;6063454;23;20181;-64
2023/05/04 08:18:05;;;;;;;6.50;4.00;;;;;;;10.51;100.00;102311.47;6063237;23;20234;-64
2023/05/04 08:20:30;;;;;;;5.63;4.07;;;;;;;10.97;100.00;102371.81;6061915;23;20171;-64
2023/05/04 08:22:56;;;;;;;6.70;3.90;;;;;;;10.92;100.00;102354.53;6063058;23;20230;-64
2023/05/04 08:25:22;;;;;;;8.00;4.20;;;;;;;11.06;100.00;102361.94;6060416;23;20228;-64
2023/05/04 08:27:47;;;;;;;5.20;4.20;;;;;;;10.90;100.00;102333.19;6062920;23;20867;-64
2023/05/04 08:30:13;;;;;;;5.93;4.00;;;;;;;10.98;100.00;102327.84;6063044;23;20226;-64
2023/05/04 08:32:39;;;;;;;4.30;3.50;;;;;;;11.00;100.00;102311.59;6063071;23;20159;-65
2023/05/04 08:35:05;;;;;;;8.50;4.00;;;;;;;11.29;100.00;102349.53;6061590;23;20175;-64
2023/05/04 08:37:31;;;;;;;9.27;4.37;;;;;;;11.31;100.00;102344.00;6063521;23;20182;-64
2023/05/04 08:39:56;;;;;;;4.17;3.20;;;;;;;11.27;100.00;102332.75;6063025;23;20422;-64
2023/05/04 08:42:30;;;;;;;5.80;3.83;;;;;;;11.42;100.00;102343.66;6063411;23;20155;-64
2023/05/04 08:44:57;;;;;;;5.27;3.70;;;;;;;11.38;100.00;102307.41;6063148;23;20155;-64
2023/05/04 08:47:27;;;;;;;7.30;4.03;;;;;;;11.67;100.00;102343.69;6061614;23;20411;-64
2023/05/04 08:49:54;;;;;;;5.70;3.87;;;;;;;11.67;100.00;102336.44;6064120;23;20368;-64
2023/05/04 08:52:24;;;;;;;8.10;4.30;;;;;;;11.67;100.00;102338.28;6062984;23;20383;-64
2023/05/04 08:54:54;;;;;;;9.27;4.40;;;;;;;11.60;100.00;102327.41;6060480;23;20391;-65
2023/05/04 08:57:22;;;;;;;7.23;4.20;;;;;;;11.72;100.00;102333.25;6061290;23;20375;-65
2023/05/04 08:59:54;;;;;;;7.50;4.27;;;;;;;11.56;100.00;102303.69;6063555;23;20419;-64
2023/05/04 09:02:23;;;;;;;4.40;3.53;;;;;;;11.65;100.00;102297.31;6060108;23;21057;-65
2023/05/04 09:04:52;;;;;;;7.97;4.33;;;;;;;11.65;100.00;102281.19;6062239;23;20911;-65
2023/05/04 09:07:19;;;;;;;6.53;3.20;;;;;;;11.86;100.00;102326.34;6062648;23;20486;-65
2023/05/04 09:09:46;;;;;;;5.87;3.37;;;;;;;11.96;100.00;102322.47;6060548;23;20386;-65
2023/05/04 09:12:12;;;;;;;8.53;4.30;;;;;;;12.10;100.00;102325.47;6062089;23;20392;-65
2023/05/04 09:14:38;;;;;;;6.90;3.70;;;;;;;11.96;100.00;102309.03;6063077;23;20387;-65
2023/05/04 09:17:23;;;;;;;6.20;3.50;;;;;;;12.12;100.00;102320.75;6062230;23;20390;-64
2023/05/04 09:20:00;;;;;;;5.23;3.13;;;;;;;12.24;100.00;102326.59;6062263;23;20423;-64
2023/05/04 09:22:25;;;;;;;4.67;3.70;;;;;;;12.37;100.00;102321.50;6063978;23;20390;-64
2023/05/04 09:24:50;;;;;;;5.70;3.63;;;;;;;12.25;100.00;102309.47;6063839;23;21018;-63
2023/05/04 09:27:16;;;;;;;6.93;3.63;;;;;;;12.32;100.00;102327.41;6062169;23;20170;-63
2023/05/04 09:29:43;;;;;;;6.00;3.47;;;;;;;12.31;100.00;102314.97;6064048;23;20151;-64
2023/05/04 09:32:13;;;;;;;6.10;3.47;;;;;;;12.35;100.00;102320.84;6064183;23;20148;-64
2023/05/04 09:34:52;;;;;;;5.33;3.53;;;;;;;12.47;100.00;102315.91;6063577;23;20882;-64
2023/05/04 09:37:21;;;;;;;5.50;3.40;;;;;;;12.52;100.00;102325.13;6063645;23;20383;-64
2023/05/04 09:39:54;;;;;;;6.23;3.23;;;;;;;12.60;100.00;102329.66;6062694;23;20416;-63
2023/05/04 09:42:20;;;;;;;8.53;3.67;;;;;;;12.64;100.00;102328.28;6063501;23;20435;-63
2023/05/04 09:44:58;;;;;;;7.60;3.20;;;;;;;12.68;100.00;102302.69;6060916;23;20903;-63
2023/05/04 09:47:31;;;;;;;5.00;3.80;;;;;;;12.68;100.00;102312.63;6063921;23;20366;-64
2023/05/04 09:49:57;;;;;;;6.67;3.37;;;;;;;12.75;100.00;102322.50;6061034;23;20376;-64
2023/05/04 09:52:29;;;;;;;7.47;3.40;;;;;;;12.81;100.00;102312.88;6063198;23;20376;-64
2023/05/04 09:54:56;;;;;;;4.17;2.93;;;;;;;13.00;100.00;102312.41;6061550;23;20375;-64
2023/05/04 09:57:23;;;;;;;5.07;3.40;;;;;;;12.93;100.00;102306.09;6060831;23;20451;-63
2023/05/04 09:59:50;;;;;;;3.23;2.73;;;;;;;12.87;100.00;102291.47;6059960;23;20759;-64
2023/05/04 10:02:16;;;;;;;5.37;3.60;;;;;;;12.88;100.00;102258.13;6061693;23;21261;-65
2023/05/04 10:04:44;;;;;;;6.13;3.53;;;;;;;12.96;100.00;102275.25;6062847;23;20387;-65
2023/05/04 10:07:09;;;;;;;5.47;3.30;;;;;;;13.09;100.00;102291.66;6063248;23;20455;-64
2023/05/04 10:09:35;;;;;;;7.10;3.27;;;;;;;13.02;100.00;102266.47;6061381;23;20395;-64
2023/05/04 10:12:05;;;;;;;6.33;3.43;;;;;;;13.11;100.00;102290.47;6059896;23;20701;-65
2023/05/04 10:14:33;;;;;;;4.27;3.00;;;;;;;13.20;100.00;102258.06;6063362;23;20219;-65
2023/05/04 10:16:58;;;;;;;5.53;3.00;;;;;;;13.26;100.00;102266.28;6059393;23;20403;-65
2023/05/04 10:19:35;;;;;;;8.40;2.97;;;;;;;13.32;100.00;102276.34;6062332;23;20426;-64
2023/05/04 10:22:31;;;;;;;6.43;2.70;;;;;;;13.30;100.00;102275.66;6063101;23;20211;-65
2023/05/04 10:25:06;;;;;;;5.80;2.83;;;;;;;13.50;100.00;102264.38;6059697;23;20376;-65
2023/05/04 10:27:49;;;;;;;4.30;2.90;;;;;;;13.28;100.00;102234.63;6059895;23;20446;-65
2023/05/04 10:30:17;;;;;;;6.13;2.73;;;;;;;13.49;100.00;102241.16;6061388;23;20364;-64
2023/05/04 10:32:43;;;;;;;10.60;2.87;;;;;;;13.53;100.00;102247.84;6061808;23;20412;-64
2023/05/04 10:35:09;;;;;;;7.80;3.43;;;;;;;13.47;100.00;102229.72;6062430;23;20400;-65
2023/05/04 10:37:36;;;;;;;7.37;3.20;;;;;;;12.97;100.00;102153.03;6062316;23;20251;-65
2023/05/04 10:40:07;;;;;;;8.67;3.60;;;;;;;13.51;100.00;102198.66;6060600;23;20459;-64
2023/05/04 10:42:43;;;;;;;3.90;2.53;;;;;;;13.74;100.00;102228.22;6058442;23;20375;-64
2023/05/04 10:45:09;;;;;;;7.23;2.37;;;;;;;13.73;100.00;102223.88;6059530;23;20470;-65
2023/05/04 10:47:36;;;;;;;4.80;2.77;;;;;;;13.83;100.00;102219.03;6062368;23;20466;-64
2023/05/04 10:50:07;;;;;;;6.50;2.83;;;;;;;13.88;100.00;102208.50;6060302;23;20399;-64
2023/05/04 10:52:54;;;;;;;6.83;3.03;;;;;;;14.02;100.00;102210.34;6059856;23;20459;-64
2023/05/04 10:55:21;;;;;;;5.77;3.10;;;;;;;13.93;100.00;102216.88;6063423;23;20411;-64
2023/05/04 10:57:52;;;;;;;7.43;3.50;;;;;;;13.89;100.00;102218.28;6062371;23;20398;-64
2023/05/04 11:00:18;;;;;;;5.83;3.00;;;;;;;14.04;100.00;102199.41;6060868;23;20422;-64
2023/05/04 11:02:46;;;;;;;5.13;2.77;;;;;;;14.15;100.00;102196.22;6061948;23;20843;-65
2023/05/04 11:05:17;;;;;;;4.80;2.90;;;;;;;14.06;100.00;102164.13;6058963;23;20395;-65
2023/05/04 11:07:43;;;;;;;3.53;2.70;;;;;;;14.35;100.00;102182.09;6060077;23;20401;-64
2023/05/04 11:10:21;;;;;;;5.57;3.00;;;;;;;14.48;100.00;102188.47;6058446;23;20937;-64
2023/05/04 11:12:47;;;;;;;5.57;3.00;;;;;;;14.58;100.00;102187.34;6062213;23;20370;-64
2023/05/04 11:15:12;;;;;;;4.47;2.90;;;;;;;14.61;100.00;102198.63;6062342;23;20407;-64
2023/05/04 11:17:51;;;;;;;6.50;3.27;;;;;;;14.68;100.00;102166.28;6060898;23;20163;-64
2023/05/04 11:20:24;;;;;;;5.13;2.70;;;;;;;14.53;100.00;102173.59;6061050;23;20193;-64